sensor_id;sensor_type;location;lat;lon;timestamp;P1;P2;P0
69224;PMS1003;56333;51.306;17.056;2023-02-28T00:00:00;39.30;18.00;
69224;PMS1003;56333;51.306;17.056;2023-02-28T00:01:54;38.30;16.70;
69224;PMS1003;56333;51.306;17.056;2023-02-28T00:03:23;34.40;15.90;
69224;PMS1003;56333;51.306;17.056;2023-02-28T00:04:52;36.80;16.60;
69224;PMS1003;56333;51.306;17.056;2023-02-28T00:06:26;37.10;17.40;
69224;PMS1003;56333;51.306;17.056;2023-02-28T00:07:55;58.70;27.40;
69224;PMS1003;56333;51.306;17.056;2023-02-28T00:09:24;51.10;25.10;
69224;PMS1003;56333;51.306;17.056;2023-02-28T00:10:53;46.20;22.10;
69224;PMS1003;56333;51.306;17.056;2023-02-28T00:12:22;60.00;26.20;
69224;PMS1003;56333;51.306;17.056;2023-02-28T00:13:51;56.50;26.70;
69224;PMS1003;56333;51.306;17.056;2023-02-28T00:15:20;52.50;25.00;
69224;PMS1003;56333;51.306;17.056;2023-02-28T00:16:49;45.50;22.20;
69224;PMS1003;56333;51.306;17.056;2023-02-28T00:18:18;47.70;21.90;
69224;PMS1003;56333;51.306;17.056;2023-02-28T00:19:47;43.00;22.20;
69224;PMS1003;56333;51.306;17.056;2023-02-28T00:21:17;39.40;21.30;
69224;PMS1003;56333;51.306;17.056;2023-02-28T00:22:48;39.80;19.50;
69224;PMS1003;56333;51.306;17.056;2023-02-28T00:24:19;39.00;20.60;
69224;PMS1003;56333;51.306;17.056;2023-02-28T00:25:48;37.40;20.50;
69224;PMS1003;56333;51.306;17.056;2023-02-28T00:27:18;39.70;21.10;
69224;PMS1003;56333;51.306;17.056;2023-02-28T00:28:47;40.60;21.10;
69224;PMS1003;56333;51.306;17.056;2023-02-28T00:31:46;39.20;20.80;
69224;PMS1003;56333;51.306;17.056;2023-02-28T00:33:16;36.50;20.30;
69224;PMS1003;56333;51.306;17.056;2023-02-28T00:34:45;40.20;21.40;
69224;PMS1003;56333;51.306;17.056;2023-02-28T00:36:14;38.60;21.40;
69224;PMS1003;56333;51.306;17.056;2023-02-28T00:37:43;40.60;22.20;
69224;PMS1003;56333;51.306;17.056;2023-02-28T00:39:11;41.30;22.30;
69224;PMS1003;56333;51.306;17.056;2023-02-28T00:40:40;39.60;20.60;
69224;PMS1003;56333;51.306;17.056;2023-02-28T00:42:10;41.20;20.00;
69224;PMS1003;56333;51.306;17.056;2023-02-28T00:43:40;35.50;18.40;
69224;PMS1003;56333;51.306;17.056;2023-02-28T00:45:12;36.00;18.30;
69224;PMS1003;56333;51.306;17.056;2023-02-28T00:46:41;36.70;18.40;
69224;PMS1003;56333;51.306;17.056;2023-02-28T00:48:10;34.30;18.00;
69224;PMS1003;56333;51.306;17.056;2023-02-28T00:49:39;33.60;17.50;
69224;PMS1003;56333;51.306;17.056;2023-02-28T00:51:09;36.50;18.20;
69224;PMS1003;56333;51.306;17.056;2023-02-28T00:52:38;35.40;18.30;
69224;PMS1003;56333;51.306;17.056;2023-02-28T00:54:06;36.10;19.00;
69224;PMS1003;56333;51.306;17.056;2023-02-28T00:55:35;36.70;18.70;
69224;PMS1003;56333;51.306;17.056;2023-02-28T00:57:05;36.60;18.40;
69224;PMS1003;56333;51.306;17.056;2023-02-28T00:58:34;37.10;18.00;
69224;PMS1003;56333;51.306;17.056;2023-02-28T01:00:03;34.40;17.90;
69224;PMS1003;56333;51.306;17.056;2023-02-28T01:03:01;32.80;16.60;
69224;PMS1003;56333;51.306;17.056;2023-02-28T01:04:30;33.70;17.40;
69224;PMS1003;56333;51.306;17.056;2023-02-28T01:06:01;40.90;19.30;
69224;PMS1003;56333;51.306;17.056;2023-02-28T01:07:30;35.20;18.90;
69224;PMS1003;56333;51.306;17.056;2023-02-28T01:08:59;35.90;19.90;
69224;PMS1003;56333;51.306;17.056;2023-02-28T01:10:29;44.70;23.90;
69224;PMS1003;56333;51.306;17.056;2023-02-28T01:11:58;38.90;20.90;
69224;PMS1003;56333;51.306;17.056;2023-02-28T01:13:27;36.00;19.10;
69224;PMS1003;56333;51.306;17.056;2023-02-28T01:14:57;39.00;20.00;
69224;PMS1003;56333;51.306;17.056;2023-02-28T01:16:26;37.40;19.70;
69224;PMS1003;56333;51.306;17.056;2023-02-28T01:17:55;38.10;19.00;
69224;PMS1003;56333;51.306;17.056;2023-02-28T01:19:24;41.40;20.60;
69224;PMS1003;56333;51.306;17.056;2023-02-28T01:20:53;42.20;20.40;
69224;PMS1003;56333;51.306;17.056;2023-02-28T01:22:22;39.60;20.60;
69224;PMS1003;56333;51.306;17.056;2023-02-28T01:23:51;46.20;22.30;
69224;PMS1003;56333;51.306;17.056;2023-02-28T01:25:20;43.10;22.50;
69224;PMS1003;56333;51.306;17.056;2023-02-28T01:26:48;42.80;21.50;
69224;PMS1003;56333;51.306;17.056;2023-02-28T01:28:17;49.80;22.70;
69224;PMS1003;56333;51.306;17.056;2023-02-28T01:29:46;44.50;22.50;
69224;PMS1003;56333;51.306;17.056;2023-02-28T01:31:15;41.90;19.70;
69224;PMS1003;56333;51.306;17.056;2023-02-28T01:32:45;39.30;18.20;
69224;PMS1003;56333;51.306;17.056;2023-02-28T01:34:14;33.80;17.30;
69224;PMS1003;56333;51.306;17.056;2023-02-28T01:35:44;42.70;18.50;
69224;PMS1003;56333;51.306;17.056;2023-02-28T01:37:14;36.30;18.20;
69224;PMS1003;56333;51.306;17.056;2023-02-28T01:38:44;35.90;18.40;
69224;PMS1003;56333;51.306;17.056;2023-02-28T01:40:15;31.20;16.40;
69224;PMS1003;56333;51.306;17.056;2023-02-28T01:41:44;32.80;17.80;
69224;PMS1003;56333;51.306;17.056;2023-02-28T01:43:21;32.60;17.30;
69224;PMS1003;56333;51.306;17.056;2023-02-28T01:45:18;33.60;16.90;
69224;PMS1003;56333;51.306;17.056;2023-02-28T01:46:50;35.10;17.80;
69224;PMS1003;56333;51.306;17.056;2023-02-28T01:48:19;31.60;17.10;
69224;PMS1003;56333;51.306;17.056;2023-02-28T01:51:25;31.60;17.40;
69224;PMS1003;56333;51.306;17.056;2023-02-28T01:52:58;33.50;17.80;
69224;PMS1003;56333;51.306;17.056;2023-02-28T01:54:33;34.20;18.00;
69224;PMS1003;56333;51.306;17.056;2023-02-28T01:56:05;29.80;16.50;
69224;PMS1003;56333;51.306;17.056;2023-02-28T01:57:41;31.10;16.90;
69224;PMS1003;56333;51.306;17.056;2023-02-28T01:59:14;31.00;17.70;
69224;PMS1003;56333;51.306;17.056;2023-02-28T02:00:49;33.30;19.40;
69224;PMS1003;56333;51.306;17.056;2023-02-28T02:02:19;31.20;17.50;
69224;PMS1003;56333;51.306;17.056;2023-02-28T02:03:50;34.10;19.40;
69224;PMS1003;56333;51.306;17.056;2023-02-28T02:05:23;36.30;20.00;
69224;PMS1003;56333;51.306;17.056;2023-02-28T02:06:54;37.40;20.80;
69224;PMS1003;56333;51.306;17.056;2023-02-28T02:08:26;37.80;20.90;
69224;PMS1003;56333;51.306;17.056;2023-02-28T02:10:06;36.40;18.70;
69224;PMS1003;56333;51.306;17.056;2023-02-28T02:11:42;37.80;17.50;
69224;PMS1003;56333;51.306;17.056;2023-02-28T02:13:33;34.70;17.30;
69224;PMS1003;56333;51.306;17.056;2023-02-28T02:15:14;35.80;17.50;
69224;PMS1003;56333;51.306;17.056;2023-02-28T02:16:57;35.20;18.80;
69224;PMS1003;56333;51.306;17.056;2023-02-28T02:18:35;36.90;18.90;
69224;PMS1003;56333;51.306;17.056;2023-02-28T02:23:22;28.50;15.10;
69224;PMS1003;56333;51.306;17.056;2023-02-28T02:25:27;31.60;16.80;
69224;PMS1003;56333;51.306;17.056;2023-02-28T02:27:13;31.90;16.80;
69224;PMS1003;56333;51.306;17.056;2023-02-28T02:29:13;31.20;16.80;
69224;PMS1003;56333;51.306;17.056;2023-02-28T02:33:44;30.70;16.20;
69224;PMS1003;56333;51.306;17.056;2023-02-28T02:35:41;29.10;15.10;
69224;PMS1003;56333;51.306;17.056;2023-02-28T02:37:20;27.50;14.60;
69224;PMS1003;56333;51.306;17.056;2023-02-28T02:39:04;28.80;14.90;
69224;PMS1003;56333;51.306;17.056;2023-02-28T02:40:41;28.50;15.00;
69224;PMS1003;56333;51.306;17.056;2023-02-28T02:42:16;30.10;16.20;
69224;PMS1003;56333;51.306;17.056;2023-02-28T02:43:56;28.70;15.70;
69224;PMS1003;56333;51.306;17.056;2023-02-28T02:45:33;28.10;15.60;
69224;PMS1003;56333;51.306;17.056;2023-02-28T02:47:08;27.40;15.10;
69224;PMS1003;56333;51.306;17.056;2023-02-28T02:48:40;29.30;14.90;
69224;PMS1003;56333;51.306;17.056;2023-02-28T02:50:17;31.50;15.30;
69224;PMS1003;56333;51.306;17.056;2023-02-28T02:51:51;26.80;15.10;
69224;PMS1003;56333;51.306;17.056;2023-02-28T02:53:24;31.80;16.40;
69224;PMS1003;56333;51.306;17.056;2023-02-28T02:54:58;30.90;15.10;
69224;PMS1003;56333;51.306;17.056;2023-02-28T02:56:32;28.20;15.80;
69224;PMS1003;56333;51.306;17.056;2023-02-28T02:58:04;28.20;15.70;
69224;PMS1003;56333;51.306;17.056;2023-02-28T02:59:36;30.00;15.60;
69224;PMS1003;56333;51.306;17.056;2023-02-28T03:01:08;29.40;15.30;
69224;PMS1003;56333;51.306;17.056;2023-02-28T03:02:40;29.00;16.00;
69224;PMS1003;56333;51.306;17.056;2023-02-28T03:04:13;27.20;14.40;
69224;PMS1003;56333;51.306;17.056;2023-02-28T03:05:48;30.70;15.30;
69224;PMS1003;56333;51.306;17.056;2023-02-28T03:07:17;30.70;16.30;
69224;PMS1003;56333;51.306;17.056;2023-02-28T03:08:46;32.30;16.10;
69224;PMS1003;56333;51.306;17.056;2023-02-28T03:10:38;26.80;15.80;
69224;PMS1003;56333;51.306;17.056;2023-02-28T03:12:11;29.10;15.60;
69224;PMS1003;56333;51.306;17.056;2023-02-28T03:16:10;31.70;15.50;
69224;PMS1003;56333;51.306;17.056;2023-02-28T03:18:03;28.90;15.60;
69224;PMS1003;56333;51.306;17.056;2023-02-28T03:19:54;29.60;14.90;
69224;PMS1003;56333;51.306;17.056;2023-02-28T03:21:36;26.30;14.50;
69224;PMS1003;56333;51.306;17.056;2023-02-28T03:23:16;29.00;15.30;
69224;PMS1003;56333;51.306;17.056;2023-02-28T03:24:52;33.70;17.00;
69224;PMS1003;56333;51.306;17.056;2023-02-28T03:26:27;31.40;16.50;
69224;PMS1003;56333;51.306;17.056;2023-02-28T03:28:07;39.90;17.20;
69224;PMS1003;56333;51.306;17.056;2023-02-28T03:29:42;30.50;18.20;
69224;PMS1003;56333;51.306;17.056;2023-02-28T03:31:18;37.60;19.30;
69224;PMS1003;56333;51.306;17.056;2023-02-28T03:32:54;41.10;23.20;
69224;PMS1003;56333;51.306;17.056;2023-02-28T03:34:31;37.40;20.10;
69224;PMS1003;56333;51.306;17.056;2023-02-28T03:36:07;37.10;20.00;
69224;PMS1003;56333;51.306;17.056;2023-02-28T03:37:41;34.70;18.60;
69224;PMS1003;56333;51.306;17.056;2023-02-28T03:39:16;31.10;17.60;
69224;PMS1003;56333;51.306;17.056;2023-02-28T03:40:51;34.10;17.40;
69224;PMS1003;56333;51.306;17.056;2023-02-28T03:42:25;31.00;17.50;
69224;PMS1003;56333;51.306;17.056;2023-02-28T03:44:00;32.60;18.00;
69224;PMS1003;56333;51.306;17.056;2023-02-28T03:45:35;33.40;18.40;
69224;PMS1003;56333;51.306;17.056;2023-02-28T03:47:10;30.40;17.40;
69224;PMS1003;56333;51.306;17.056;2023-02-28T03:48:44;28.90;16.80;
69224;PMS1003;56333;51.306;17.056;2023-02-28T03:51:47;29.00;16.50;
69224;PMS1003;56333;51.306;17.056;2023-02-28T03:53:22;29.00;16.00;
69224;PMS1003;56333;51.306;17.056;2023-02-28T03:54:57;32.20;15.90;
69224;PMS1003;56333;51.306;17.056;2023-02-28T03:56:37;32.20;16.10;
69224;PMS1003;56333;51.306;17.056;2023-02-28T03:58:13;32.10;15.60;
69224;PMS1003;56333;51.306;17.056;2023-02-28T03:59:49;30.80;15.40;
69224;PMS1003;56333;51.306;17.056;2023-02-28T04:01:27;25.50;14.00;
69224;PMS1003;56333;51.306;17.056;2023-02-28T04:02:59;26.10;12.60;
69224;PMS1003;56333;51.306;17.056;2023-02-28T04:04:28;23.70;13.60;
69224;PMS1003;56333;51.306;17.056;2023-02-28T04:05:58;26.10;14.20;
69224;PMS1003;56333;51.306;17.056;2023-02-28T04:07:31;30.00;15.20;
69224;PMS1003;56333;51.306;17.056;2023-02-28T04:09:00;26.90;15.10;
69224;PMS1003;56333;51.306;17.056;2023-02-28T04:10:29;23.60;14.40;
69224;PMS1003;56333;51.306;17.056;2023-02-28T04:11:58;27.90;15.00;
69224;PMS1003;56333;51.306;17.056;2023-02-28T04:13:27;27.30;15.00;
69224;PMS1003;56333;51.306;17.056;2023-02-28T04:14:56;27.90;15.40;
69224;PMS1003;56333;51.306;17.056;2023-02-28T04:16:25;29.60;16.00;
69224;PMS1003;56333;51.306;17.056;2023-02-28T04:17:54;26.50;15.40;
69224;PMS1003;56333;51.306;17.056;2023-02-28T04:19:23;27.00;14.70;
69224;PMS1003;56333;51.306;17.056;2023-02-28T04:20:53;28.60;15.00;
69224;PMS1003;56333;51.306;17.056;2023-02-28T04:22:21;27.50;16.00;
69224;PMS1003;56333;51.306;17.056;2023-02-28T04:23:52;31.20;16.10;
69224;PMS1003;56333;51.306;17.056;2023-02-28T04:25:21;32.70;16.70;
69224;PMS1003;56333;51.306;17.056;2023-02-28T04:26:53;29.70;16.30;
69224;PMS1003;56333;51.306;17.056;2023-02-28T04:28:23;29.90;16.10;
69224;PMS1003;56333;51.306;17.056;2023-02-28T04:29:52;30.80;17.00;
69224;PMS1003;56333;51.306;17.056;2023-02-28T04:31:21;28.40;16.60;
69224;PMS1003;56333;51.306;17.056;2023-02-28T04:32:49;32.10;16.40;
69224;PMS1003;56333;51.306;17.056;2023-02-28T04:34:18;33.30;17.50;
69224;PMS1003;56333;51.306;17.056;2023-02-28T04:35:49;32.20;17.20;
69224;PMS1003;56333;51.306;17.056;2023-02-28T04:37:27;31.20;16.80;
69224;PMS1003;56333;51.306;17.056;2023-02-28T04:38:56;28.00;16.40;
69224;PMS1003;56333;51.306;17.056;2023-02-28T04:40:25;31.80;17.30;
69224;PMS1003;56333;51.306;17.056;2023-02-28T04:41:54;35.40;19.80;
69224;PMS1003;56333;51.306;17.056;2023-02-28T04:43:23;39.60;20.70;
69224;PMS1003;56333;51.306;17.056;2023-02-28T04:44:53;35.00;17.90;
69224;PMS1003;56333;51.306;17.056;2023-02-28T04:46:22;32.50;18.00;
69224;PMS1003;56333;51.306;17.056;2023-02-28T04:47:51;34.60;17.60;
69224;PMS1003;56333;51.306;17.056;2023-02-28T04:49:20;33.50;16.70;
69224;PMS1003;56333;51.306;17.056;2023-02-28T04:50:49;33.80;18.00;
69224;PMS1003;56333;51.306;17.056;2023-02-28T04:52:18;36.10;18.50;
69224;PMS1003;56333;51.306;17.056;2023-02-28T04:53:48;36.30;18.80;
69224;PMS1003;56333;51.306;17.056;2023-02-28T04:55:16;36.30;18.90;
69224;PMS1003;56333;51.306;17.056;2023-02-28T04:56:45;35.50;19.10;
69224;PMS1003;56333;51.306;17.056;2023-02-28T04:58:15;37.60;20.20;
69224;PMS1003;56333;51.306;17.056;2023-02-28T04:59:44;41.30;20.60;
69224;PMS1003;56333;51.306;17.056;2023-02-28T05:01:23;40.10;21.80;
69224;PMS1003;56333;51.306;17.056;2023-02-28T05:02:52;46.60;24.40;
69224;PMS1003;56333;51.306;17.056;2023-02-28T05:04:21;42.40;22.90;
69224;PMS1003;56333;51.306;17.056;2023-02-28T05:05:50;45.60;24.30;
69224;PMS1003;56333;51.306;17.056;2023-02-28T05:07:19;48.80;25.00;
69224;PMS1003;56333;51.306;17.056;2023-02-28T05:08:48;44.20;23.90;
69224;PMS1003;56333;51.306;17.056;2023-02-28T05:10:18;46.10;26.00;
69224;PMS1003;56333;51.306;17.056;2023-02-28T05:11:46;52.70;27.30;
69224;PMS1003;56333;51.306;17.056;2023-02-28T05:13:15;50.90;27.80;
69224;PMS1003;56333;51.306;17.056;2023-02-28T05:14:44;52.80;27.40;
69224;PMS1003;56333;51.306;17.056;2023-02-28T05:16:13;46.90;25.40;
69224;PMS1003;56333;51.306;17.056;2023-02-28T05:17:43;44.30;24.50;
69224;PMS1003;56333;51.306;17.056;2023-02-28T05:19:12;46.10;23.90;
69224;PMS1003;56333;51.306;17.056;2023-02-28T05:20:41;43.40;24.30;
69224;PMS1003;56333;51.306;17.056;2023-02-28T05:22:16;51.20;26.20;
69224;PMS1003;56333;51.306;17.056;2023-02-28T05:23:44;53.40;26.80;
69224;PMS1003;56333;51.306;17.056;2023-02-28T05:25:17;46.10;25.10;
69224;PMS1003;56333;51.306;17.056;2023-02-28T05:26:47;52.90;27.90;
69224;PMS1003;56333;51.306;17.056;2023-02-28T05:28:16;49.60;26.20;
69224;PMS1003;56333;51.306;17.056;2023-02-28T05:29:45;51.60;26.30;
69224;PMS1003;56333;51.306;17.056;2023-02-28T05:31:15;48.50;25.60;
69224;PMS1003;56333;51.306;17.056;2023-02-28T05:32:44;44.70;23.40;
69224;PMS1003;56333;51.306;17.056;2023-02-28T05:34:18;49.60;24.70;
69224;PMS1003;56333;51.306;17.056;2023-02-28T05:35:47;49.80;24.70;
69224;PMS1003;56333;51.306;17.056;2023-02-28T05:37:16;51.30;25.60;
69224;PMS1003;56333;51.306;17.056;2023-02-28T05:38:47;51.30;24.90;
69224;PMS1003;56333;51.306;17.056;2023-02-28T05:40:17;49.40;24.80;
69224;PMS1003;56333;51.306;17.056;2023-02-28T05:41:46;49.30;24.10;
69224;PMS1003;56333;51.306;17.056;2023-02-28T05:43:15;53.10;25.10;
69224;PMS1003;56333;51.306;17.056;2023-02-28T05:44:45;49.40;24.30;
69224;PMS1003;56333;51.306;17.056;2023-02-28T05:46:15;55.40;27.10;
69224;PMS1003;56333;51.306;17.056;2023-02-28T05:47:44;62.20;28.80;
69224;PMS1003;56333;51.306;17.056;2023-02-28T05:49:13;45.20;23.50;
69224;PMS1003;56333;51.306;17.056;2023-02-28T05:50:42;61.70;29.70;
69224;PMS1003;56333;51.306;17.056;2023-02-28T05:52:11;58.60;28.20;
69224;PMS1003;56333;51.306;17.056;2023-02-28T05:53:41;58.40;27.20;
69224;PMS1003;56333;51.306;17.056;2023-02-28T05:55:11;58.50;28.80;
69224;PMS1003;56333;51.306;17.056;2023-02-28T05:56:40;57.90;27.30;
69224;PMS1003;56333;51.306;17.056;2023-02-28T05:58:11;53.80;25.40;
69224;PMS1003;56333;51.306;17.056;2023-02-28T05:59:41;53.10;30.80;
69224;PMS1003;56333;51.306;17.056;2023-02-28T06:01:33;57.00;27.90;
69224;PMS1003;56333;51.306;17.056;2023-02-28T06:03:04;61.90;29.50;
69224;PMS1003;56333;51.306;17.056;2023-02-28T06:04:32;60.00;30.80;
69224;PMS1003;56333;51.306;17.056;2023-02-28T06:06:01;68.90;32.30;
69224;PMS1003;56333;51.306;17.056;2023-02-28T06:07:33;61.90;28.10;
69224;PMS1003;56333;51.306;17.056;2023-02-28T06:10:30;58.90;28.00;
69224;PMS1003;56333;51.306;17.056;2023-02-28T06:12:03;47.30;23.00;
69224;PMS1003;56333;51.306;17.056;2023-02-28T06:13:35;46.70;23.20;
69224;PMS1003;56333;51.306;17.056;2023-02-28T06:15:04;55.30;25.90;
69224;PMS1003;56333;51.306;17.056;2023-02-28T06:16:36;65.80;29.00;
69224;PMS1003;56333;51.306;17.056;2023-02-28T06:18:04;53.50;24.80;
69224;PMS1003;56333;51.306;17.056;2023-02-28T06:19:33;59.40;27.30;
69224;PMS1003;56333;51.306;17.056;2023-02-28T06:21:04;66.20;28.90;
69224;PMS1003;56333;51.306;17.056;2023-02-28T06:22:35;56.90;26.80;
69224;PMS1003;56333;51.306;17.056;2023-02-28T06:24:05;55.40;26.40;
69224;PMS1003;56333;51.306;17.056;2023-02-28T06:25:35;44.90;22.60;
69224;PMS1003;56333;51.306;17.056;2023-02-28T06:27:04;50.00;23.80;
69224;PMS1003;56333;51.306;17.056;2023-02-28T06:28:33;55.40;25.30;
69224;PMS1003;56333;51.306;17.056;2023-02-28T06:30:02;40.90;20.70;
69224;PMS1003;56333;51.306;17.056;2023-02-28T06:31:33;46.30;23.20;
69224;PMS1003;56333;51.306;17.056;2023-02-28T06:33:02;52.00;24.50;
69224;PMS1003;56333;51.306;17.056;2023-02-28T06:34:32;45.50;22.80;
69224;PMS1003;56333;51.306;17.056;2023-02-28T06:36:02;44.10;22.60;
69224;PMS1003;56333;51.306;17.056;2023-02-28T06:37:33;44.30;22.80;
69224;PMS1003;56333;51.306;17.056;2023-02-28T06:39:03;45.30;22.30;
69224;PMS1003;56333;51.306;17.056;2023-02-28T06:40:33;48.90;23.30;
69224;PMS1003;56333;51.306;17.056;2023-02-28T06:42:02;47.20;23.30;
69224;PMS1003;56333;51.306;17.056;2023-02-28T06:43:35;49.70;23.60;
69224;PMS1003;56333;51.306;17.056;2023-02-28T06:45:08;50.30;24.90;
69224;PMS1003;56333;51.306;17.056;2023-02-28T06:46:39;49.90;24.90;
69224;PMS1003;56333;51.306;17.056;2023-02-28T06:48:09;55.90;25.90;
69224;PMS1003;56333;51.306;17.056;2023-02-28T06:49:38;55.30;28.00;
69224;PMS1003;56333;51.306;17.056;2023-02-28T06:51:11;67.00;30.50;
69224;PMS1003;56333;51.306;17.056;2023-02-28T06:52:41;54.70;26.10;
69224;PMS1003;56333;51.306;17.056;2023-02-28T06:54:10;53.30;26.70;
69224;PMS1003;56333;51.306;17.056;2023-02-28T06:55:40;45.50;22.20;
69224;PMS1003;56333;51.306;17.056;2023-02-28T06:57:09;47.10;24.10;
69224;PMS1003;56333;51.306;17.056;2023-02-28T06:58:39;52.40;25.60;
69224;PMS1003;56333;51.306;17.056;2023-02-28T07:00:11;59.00;29.30;
69224;PMS1003;56333;51.306;17.056;2023-02-28T07:01:41;58.60;29.80;
69224;PMS1003;56333;51.306;17.056;2023-02-28T07:03:11;52.90;27.00;
69224;PMS1003;56333;51.306;17.056;2023-02-28T07:04:41;46.60;24.80;
69224;PMS1003;56333;51.306;17.056;2023-02-28T07:06:11;46.20;25.00;
69224;PMS1003;56333;51.306;17.056;2023-02-28T07:07:44;49.30;25.50;
69224;PMS1003;56333;51.306;17.056;2023-02-28T07:09:14;53.90;26.20;
69224;PMS1003;56333;51.306;17.056;2023-02-28T07:10:45;55.90;28.60;
69224;PMS1003;56333;51.306;17.056;2023-02-28T07:12:14;56.60;27.30;
69224;PMS1003;56333;51.306;17.056;2023-02-28T07:13:43;60.20;28.70;
69224;PMS1003;56333;51.306;17.056;2023-02-28T07:15:14;51.40;26.30;
69224;PMS1003;56333;51.306;17.056;2023-02-28T07:16:43;51.50;26.70;
69224;PMS1003;56333;51.306;17.056;2023-02-28T07:18:12;49.90;25.20;
69224;PMS1003;56333;51.306;17.056;2023-02-28T07:19:41;59.20;28.70;
69224;PMS1003;56333;51.306;17.056;2023-02-28T07:21:11;62.10;28.00;
69224;PMS1003;56333;51.306;17.056;2023-02-28T07:22:41;48.40;24.20;
69224;PMS1003;56333;51.306;17.056;2023-02-28T07:24:10;45.10;23.40;
69224;PMS1003;56333;51.306;17.056;2023-02-28T07:25:41;44.20;21.90;
69224;PMS1003;56333;51.306;17.056;2023-02-28T07:27:11;44.00;22.60;
69224;PMS1003;56333;51.306;17.056;2023-02-28T07:28:51;43.00;22.80;
69224;PMS1003;56333;51.306;17.056;2023-02-28T07:30:21;44.70;23.40;
69224;PMS1003;56333;51.306;17.056;2023-02-28T07:31:50;43.40;23.30;
69224;PMS1003;56333;51.306;17.056;2023-02-28T07:33:19;44.60;22.40;
69224;PMS1003;56333;51.306;17.056;2023-02-28T07:34:49;43.20;22.20;
69224;PMS1003;56333;51.306;17.056;2023-02-28T07:36:19;42.80;23.10;
69224;PMS1003;56333;51.306;17.056;2023-02-28T07:37:48;49.90;23.30;
69224;PMS1003;56333;51.306;17.056;2023-02-28T07:39:18;42.80;22.80;
69224;PMS1003;56333;51.306;17.056;2023-02-28T07:40:47;46.20;24.10;
69224;PMS1003;56333;51.306;17.056;2023-02-28T07:42:17;44.30;24.00;
69224;PMS1003;56333;51.306;17.056;2023-02-28T07:43:47;47.50;24.80;
69224;PMS1003;56333;51.306;17.056;2023-02-28T07:45:16;46.70;24.80;
69224;PMS1003;56333;51.306;17.056;2023-02-28T07:46:46;49.50;25.10;
69224;PMS1003;56333;51.306;17.056;2023-02-28T07:48:15;51.40;26.30;
69224;PMS1003;56333;51.306;17.056;2023-02-28T07:49:44;64.90;35.00;
69224;PMS1003;56333;51.306;17.056;2023-02-28T07:51:13;48.50;26.10;
69224;PMS1003;56333;51.306;17.056;2023-02-28T07:52:43;66.90;40.20;
69224;PMS1003;56333;51.306;17.056;2023-02-28T07:54:12;60.00;34.90;
69224;PMS1003;56333;51.306;17.056;2023-02-28T07:55:40;53.90;27.60;
69224;PMS1003;56333;51.306;17.056;2023-02-28T07:57:09;47.40;24.50;
69224;PMS1003;56333;51.306;17.056;2023-02-28T07:58:39;41.00;23.80;
69224;PMS1003;56333;51.306;17.056;2023-02-28T08:00:11;45.00;23.70;
69224;PMS1003;56333;51.306;17.056;2023-02-28T08:01:41;46.20;23.60;
69224;PMS1003;56333;51.306;17.056;2023-02-28T08:03:12;43.00;23.60;
69224;PMS1003;56333;51.306;17.056;2023-02-28T08:04:41;46.70;24.20;
69224;PMS1003;56333;51.306;17.056;2023-02-28T08:06:18;40.40;23.40;
69224;PMS1003;56333;51.306;17.056;2023-02-28T08:07:48;49.00;24.50;
69224;PMS1003;56333;51.306;17.056;2023-02-28T08:09:17;42.90;23.80;
69224;PMS1003;56333;51.306;17.056;2023-02-28T08:10:46;40.20;20.40;
69224;PMS1003;56333;51.306;17.056;2023-02-28T08:12:15;39.50;21.00;
69224;PMS1003;56333;51.306;17.056;2023-02-28T08:13:44;40.00;21.40;
69224;PMS1003;56333;51.306;17.056;2023-02-28T08:15:13;40.60;22.30;
69224;PMS1003;56333;51.306;17.056;2023-02-28T08:16:42;39.40;20.80;
69224;PMS1003;56333;51.306;17.056;2023-02-28T08:18:11;38.50;20.80;
69224;PMS1003;56333;51.306;17.056;2023-02-28T08:19:40;34.00;17.60;
69224;PMS1003;56333;51.306;17.056;2023-02-28T08:21:11;38.40;20.80;
69224;PMS1003;56333;51.306;17.056;2023-02-28T08:22:40;36.40;20.00;
69224;PMS1003;56333;51.306;17.056;2023-02-28T08:24:10;33.40;18.60;
69224;PMS1003;56333;51.306;17.056;2023-02-28T08:25:39;31.20;16.70;
69224;PMS1003;56333;51.306;17.056;2023-02-28T08:27:08;34.20;17.60;
69224;PMS1003;56333;51.306;17.056;2023-02-28T08:28:37;38.40;20.50;
69224;PMS1003;56333;51.306;17.056;2023-02-28T08:30:09;39.80;20.40;
69224;PMS1003;56333;51.306;17.056;2023-02-28T08:31:39;32.90;17.00;
69224;PMS1003;56333;51.306;17.056;2023-02-28T08:33:09;31.60;16.90;
69224;PMS1003;56333;51.306;17.056;2023-02-28T08:34:40;28.90;15.80;
69224;PMS1003;56333;51.306;17.056;2023-02-28T08:37:37;25.40;13.40;
69224;PMS1003;56333;51.306;17.056;2023-02-28T08:39:06;31.20;14.30;
69224;PMS1003;56333;51.306;17.056;2023-02-28T08:40:36;28.40;14.70;
69224;PMS1003;56333;51.306;17.056;2023-02-28T08:42:05;27.20;13.70;
69224;PMS1003;56333;51.306;17.056;2023-02-28T08:43:34;17.00;9.40;
69224;PMS1003;56333;51.306;17.056;2023-02-28T08:45:05;16.10;9.30;
69224;PMS1003;56333;51.306;17.056;2023-02-28T08:46:35;24.20;11.50;
69224;PMS1003;56333;51.306;17.056;2023-02-28T08:48:04;18.90;9.30;
69224;PMS1003;56333;51.306;17.056;2023-02-28T08:49:33;21.00;11.00;
69224;PMS1003;56333;51.306;17.056;2023-02-28T08:51:06;32.50;18.10;
69224;PMS1003;56333;51.306;17.056;2023-02-28T08:52:36;41.40;20.60;
69224;PMS1003;56333;51.306;17.056;2023-02-28T08:54:05;32.70;18.00;
69224;PMS1003;56333;51.306;17.056;2023-02-28T08:55:35;29.80;16.50;
69224;PMS1003;56333;51.306;17.056;2023-02-28T08:57:05;30.70;15.90;
69224;PMS1003;56333;51.306;17.056;2023-02-28T08:58:34;33.70;17.60;
69224;PMS1003;56333;51.306;17.056;2023-02-28T09:00:04;29.70;15.80;
69224;PMS1003;56333;51.306;17.056;2023-02-28T09:01:36;26.00;14.30;
69224;PMS1003;56333;51.306;17.056;2023-02-28T09:03:05;15.20;7.20;
69224;PMS1003;56333;51.306;17.056;2023-02-28T09:04:34;9.00;4.80;
69224;PMS1003;56333;51.306;17.056;2023-02-28T09:06:03;9.90;6.30;
69224;PMS1003;56333;51.306;17.056;2023-02-28T09:07:33;15.00;8.40;
69224;PMS1003;56333;51.306;17.056;2023-02-28T09:09:02;14.50;7.00;
69224;PMS1003;56333;51.306;17.056;2023-02-28T09:12:00;17.30;8.90;
69224;PMS1003;56333;51.306;17.056;2023-02-28T09:13:30;23.40;13.80;
69224;PMS1003;56333;51.306;17.056;2023-02-28T09:15:00;16.60;7.70;
69224;PMS1003;56333;51.306;17.056;2023-02-28T09:16:31;12.50;6.90;
69224;PMS1003;56333;51.306;17.056;2023-02-28T09:18:00;12.50;6.60;
69224;PMS1003;56333;51.306;17.056;2023-02-28T09:19:30;17.30;9.50;
69224;PMS1003;56333;51.306;17.056;2023-02-28T09:20:59;20.00;10.50;
69224;PMS1003;56333;51.306;17.056;2023-02-28T09:22:31;18.50;10.30;